sensor_id;sensor_type;location;lat;lon;timestamp;pressure;altitude;pressure_sealevel;temperature;humidity
25869;BME280;13688;53.154;18.136;2022-10-22T00:00:23;100519.47;;;7.24;100.00
25869;BME280;13688;53.154;18.136;2022-10-22T00:05:47;100516.61;;;7.27;100.00
25869;BME280;13688;53.154;18.136;2022-10-22T00:11:15;100517.24;;;7.30;100.00
25869;BME280;13688;53.154;18.136;2022-10-22T00:16:38;100510.75;;;7.34;100.00
25869;BME280;13688;53.154;18.136;2022-10-22T00:22:00;100509.56;;;7.38;100.00
25869;BME280;13688;53.154;18.136;2022-10-22T00:27:23;100513.73;;;7.42;100.00
25869;BME280;13688;53.154;18.136;2022-10-22T00:32:45;100510.87;;;7.45;100.00
25869;BME280;13688;53.154;18.136;2022-10-22T00:38:07;100515.03;;;7.50;100.00
25869;BME280;13688;53.154;18.136;2022-10-22T00:43:32;100507.76;;;7.52;100.00
25869;BME280;13688;53.154;18.136;2022-10-22T00:49:12;100508.42;;;7.55;100.00
25869;BME280;13688;53.154;18.136;2022-10-22T00:54:34;100506.48;;;7.57;100.00
25869;BME280;13688;53.154;18.136;2022-10-22T00:59:59;100497.50;;;7.58;100.00
25869;BME280;13688;53.154;18.136;2022-10-22T01:05:25;100492.03;;;7.60;100.00
25869;BME280;13688;53.154;18.136;2022-10-22T01:10:59;100491.92;;;7.61;100.00
25869;BME280;13688;53.154;18.136;2022-10-22T01:16:52;100487.35;;;7.63;100.00
25869;BME280;13688;53.154;18.136;2022-10-22T01:22:21;100480.17;;;7.64;100.00
25869;BME280;13688;53.154;18.136;2022-10-22T01:28:07;100473.86;;;7.65;100.00
25869;BME280;13688;53.154;18.136;2022-10-22T01:33:35;100469.36;;;7.65;100.00
25869;BME280;13688;53.154;18.136;2022-10-22T01:39:01;100466.58;;;7.67;100.00
25869;BME280;13688;53.154;18.136;2022-10-22T01:44:32;100466.69;;;7.65;100.00
25869;BME280;13688;53.154;18.136;2022-10-22T01:56:00;100464.64;;;7.69;100.00
25869;BME280;13688;53.154;18.136;2022-10-22T02:01:44;100467.20;;;7.70;100.00
25869;BME280;13688;53.154;18.136;2022-10-22T02:07:14;100451.03;;;7.72;100.00
25869;BME280;13688;53.154;18.136;2022-10-22T02:12:39;100449.02;;;7.75;100.00
25869;BME280;13688;53.154;18.136;2022-10-22T02:18:05;100452.44;;;7.78;100.00
25869;BME280;13688;53.154;18.136;2022-10-22T02:23:29;100451.47;;;7.79;100.00
25869;BME280;13688;53.154;18.136;2022-10-22T02:34:37;100448.60;;;7.82;100.00
25869;BME280;13688;53.154;18.136;2022-10-22T02:40:00;100451.16;;;7.83;100.00
25869;BME280;13688;53.154;18.136;2022-10-22T02:45:23;100442.91;;;7.86;100.00
25869;BME280;13688;53.154;18.136;2022-10-22T02:50:46;100428.44;;;7.89;100.00
25869;BME280;13688;53.154;18.136;2022-10-22T02:56:08;100436.28;;;7.92;100.00
25869;BME280;13688;53.154;18.136;2022-10-22T03:01:31;100430.69;;;7.95;100.00
25869;BME280;13688;53.154;18.136;2022-10-22T03:06:53;100434.00;;;7.98;100.00
25869;BME280;13688;53.154;18.136;2022-10-22T03:12:16;100444.50;;;8.01;100.00
25869;BME280;13688;53.154;18.136;2022-10-22T03:17:38;100452.20;;;8.06;100.00
25869;BME280;13688;53.154;18.136;2022-10-22T03:23:01;100459.38;;;8.06;100.00
25869;BME280;13688;53.154;18.136;2022-10-22T03:28:25;100473.62;;;8.06;100.00
25869;BME280;13688;53.154;18.136;2022-10-22T03:33:47;100486.89;;;8.08;100.00
25869;BME280;13688;53.154;18.136;2022-10-22T03:39:11;100478.97;;;8.06;100.00
25869;BME280;13688;53.154;18.136;2022-10-22T03:44:38;100480.45;;;8.10;100.00
25869;BME280;13688;53.154;18.136;2022-10-22T03:50:01;100466.01;;;8.13;100.00
25869;BME280;13688;53.154;18.136;2022-10-22T03:55:25;100465.90;;;8.14;100.00
25869;BME280;13688;53.154;18.136;2022-10-22T04:00:48;100465.05;;;8.14;100.00
25869;BME280;13688;53.154;18.136;2022-10-22T04:06:12;100468.46;;;8.16;100.00
25869;BME280;13688;53.154;18.136;2022-10-22T04:11:34;100477.97;;;8.20;100.00
25869;BME280;13688;53.154;18.136;2022-10-22T04:16:56;100476.27;;;8.19;100.00
25869;BME280;13688;53.154;18.136;2022-10-22T04:22:18;100464.58;;;8.20;100.00
25869;BME280;13688;53.154;18.136;2022-10-22T04:27:40;100463.53;;;8.22;100.00
25869;BME280;13688;53.154;18.136;2022-10-22T04:33:03;100455.38;;;8.24;100.00
25869;BME280;13688;53.154;18.136;2022-10-22T04:38:26;100447.34;;;8.24;100.00
25869;BME280;13688;53.154;18.136;2022-10-22T04:43:48;100441.02;;;8.25;100.00
25869;BME280;13688;53.154;18.136;2022-10-22T04:49:11;100445.17;;;8.29;100.00
25869;BME280;13688;53.154;18.136;2022-10-22T04:54:34;100430.72;;;8.31;100.00
25869;BME280;13688;53.154;18.136;2022-10-22T04:59:57;100435.88;;;8.35;100.00
25869;BME280;13688;53.154;18.136;2022-10-22T05:05:19;100439.41;;;8.35;100.00
25869;BME280;13688;53.154;18.136;2022-10-22T05:10:41;100434.79;;;8.37;100.00
25869;BME280;13688;53.154;18.136;2022-10-22T05:16:05;100445.07;;;8.43;100.00
25869;BME280;13688;53.154;18.136;2022-10-22T05:21:28;100448.60;;;8.44;100.00
25869;BME280;13688;53.154;18.136;2022-10-22T05:26:51;100460.17;;;8.44;100.00
25869;BME280;13688;53.154;18.136;2022-10-22T05:32:14;100476.67;;;8.51;100.00
25869;BME280;13688;53.154;18.136;2022-10-22T05:37:37;100480.20;;;8.51;100.00
25869;BME280;13688;53.154;18.136;2022-10-22T05:42:59;100492.62;;;8.52;100.00
25869;BME280;13688;53.154;18.136;2022-10-22T05:48:22;100497.87;;;8.54;100.00
25869;BME280;13688;53.154;18.136;2022-10-22T05:53:49;100494.10;;;8.56;100.00
25869;BME280;13688;53.154;18.136;2022-10-22T05:59:10;100505.36;;;8.62;100.00
25869;BME280;13688;53.154;18.136;2022-10-22T06:04:33;100500.73;;;8.64;100.00
25869;BME280;13688;53.154;18.136;2022-10-22T06:09:55;100486.24;;;8.66;100.00
25869;BME280;13688;53.154;18.136;2022-10-22T06:15:18;100482.39;;;8.70;100.00
25869;BME280;13688;53.154;18.136;2022-10-22T06:20:40;100486.30;;;8.77;100.00
25869;BME280;13688;53.154;18.136;2022-10-22T06:26:04;100488.66;;;8.82;100.00
25869;BME280;13688;53.154;18.136;2022-10-22T06:31:27;100487.45;;;8.86;100.00
25869;BME280;13688;53.154;18.136;2022-10-22T06:36:50;100507.60;;;8.92;100.00
25869;BME280;13688;53.154;18.136;2022-10-22T06:42:12;100519.68;;;8.97;100.00
25869;BME280;13688;53.154;18.136;2022-10-22T06:47:35;100531.91;;;9.01;100.00
25869;BME280;13688;53.154;18.136;2022-10-22T06:52:57;100528.02;;;9.05;100.00
25869;BME280;13688;53.154;18.136;2022-10-22T06:58:19;100532.20;;;9.09;100.00
25869;BME280;13688;53.154;18.136;2022-10-22T07:03:42;100543.55;;;9.13;100.00
25869;BME280;13688;53.154;18.136;2022-10-22T07:09:06;100556.52;;;9.19;100.00
25869;BME280;13688;53.154;18.136;2022-10-22T07:14:29;100558.63;;;9.27;100.00
25869;BME280;13688;53.154;18.136;2022-10-22T07:19:51;100569.73;;;9.33;100.00
25869;BME280;13688;53.154;18.136;2022-10-22T07:25:13;100572.58;;;9.43;100.00
25869;BME280;13688;53.154;18.136;2022-10-22T07:30:36;100580.06;;;9.51;100.00
25869;BME280;13688;53.154;18.136;2022-10-22T07:36:01;100591.20;;;9.57;100.00
25869;BME280;13688;53.154;18.136;2022-10-22T07:41:22;100587.83;;;9.66;100.00
25869;BME280;13688;53.154;18.136;2022-10-22T07:46:44;100577.23;;;9.76;100.00
25869;BME280;13688;53.154;18.136;2022-10-22T07:52:07;100578.24;;;9.86;100.00
25869;BME280;13688;53.154;18.136;2022-10-22T07:57:30;100578.27;;;9.97;100.00
25869;BME280;13688;53.154;18.136;2022-10-22T08:02:52;100584.97;;;10.03;100.00
25869;BME280;13688;53.154;18.136;2022-10-22T08:08:16;100590.00;;;10.08;100.00
25869;BME280;13688;53.154;18.136;2022-10-22T08:13:40;100580.00;;;10.21;100.00
25869;BME280;13688;53.154;18.136;2022-10-22T08:19:02;100578.45;;;10.29;100.00
25869;BME280;13688;53.154;18.136;2022-10-22T08:24:42;100563.08;;;10.54;100.00
25869;BME280;13688;53.154;18.136;2022-10-22T08:30:04;100578.48;;;10.52;100.00
25869;BME280;13688;53.154;18.136;2022-10-22T08:35:27;100581.17;;;10.52;100.00
25869;BME280;13688;53.154;18.136;2022-10-22T08:40:52;100576.99;;;10.59;100.00
25869;BME280;13688;53.154;18.136;2022-10-22T08:46:50;100587.40;;;10.64;100.00
25869;BME280;13688;53.154;18.136;2022-10-22T08:52:12;100583.34;;;10.69;100.00
25869;BME280;13688;53.154;18.136;2022-10-22T09:09:11;100547.52;;;10.91;100.00
25869;BME280;13688;53.154;18.136;2022-10-22T09:14:36;100551.66;;;10.95;100.00
25869;BME280;13688;53.154;18.136;2022-10-22T09:25:39;100561.07;;;11.01;100.00
25869;BME280;13688;53.154;18.136;2022-10-22T09:31:11;100562.37;;;11.06;100.00
25869;BME280;13688;53.154;18.136;2022-10-22T09:36:38;100566.28;;;11.13;100.00
25869;BME280;13688;53.154;18.136;2022-10-22T09:42:02;100580.56;;;11.25;100.00
25869;BME280;13688;53.154;18.136;2022-10-22T09:47:39;100590.02;;;11.20;100.00
25869;BME280;13688;53.154;18.136;2022-10-22T09:53:31;100594.02;;;11.25;100.00
25869;BME280;13688;53.154;18.136;2022-10-22T09:59:05;100604.97;;;11.44;100.00
25869;BME280;13688;53.154;18.136;2022-10-22T10:04:38;100599.98;;;11.40;100.00
25869;BME280;13688;53.154;18.136;2022-10-22T10:09:56;100606.31;;;11.50;100.00
25869;BME280;13688;53.154;18.136;2022-10-22T10:15:37;100622.46;;;11.50;100.00
25869;BME280;13688;53.154;18.136;2022-10-22T10:21:25;100623.19;;;11.52;100.00
25869;BME280;13688;53.154;18.136;2022-10-22T10:32:35;100627.45;;;11.55;100.00
25869;BME280;13688;53.154;18.136;2022-10-22T10:38:21;100607.75;;;11.54;100.00
25869;BME280;13688;53.154;18.136;2022-10-22T10:44:32;100605.77;;;11.56;100.00
25869;BME280;13688;53.154;18.136;2022-10-22T10:55:53;100619.72;;;11.61;100.00
25869;BME280;13688;53.154;18.136;2022-10-22T11:01:44;100621.43;;;11.62;100.00
25869;BME280;13688;53.154;18.136;2022-10-22T11:07:08;100621.43;;;11.62;100.00
25869;BME280;13688;53.154;18.136;2022-10-22T11:12:46;100622.28;;;11.63;100.00
25869;BME280;13688;53.154;18.136;2022-10-22T11:18:36;100615.99;;;11.73;100.00
25869;BME280;13688;53.154;18.136;2022-10-22T11:30:03;100610.25;;;11.67;100.00
25869;BME280;13688;53.154;18.136;2022-10-22T11:35:43;100605.63;;;11.69;100.00
25869;BME280;13688;53.154;18.136;2022-10-22T11:41:05;100614.42;;;11.71;100.00
25869;BME280;13688;53.154;18.136;2022-10-22T11:46:44;100611.59;;;11.72;100.00
25869;BME280;13688;53.154;18.136;2022-10-22T11:52:26;100613.30;;;11.73;100.00
25869;BME280;13688;53.154;18.136;2022-10-22T11:57:55;100603.37;;;11.74;100.00
25869;BME280;13688;53.154;18.136;2022-10-22T12:09:00;100607.78;;;11.75;100.00
25869;BME280;13688;53.154;18.136;2022-10-22T12:14:50;100598.61;;;11.78;100.00
25869;BME280;13688;53.154;18.136;2022-10-22T12:20:19;100600.20;;;11.80;100.00
25869;BME280;13688;53.154;18.136;2022-10-22T12:25:43;100608.29;;;11.80;100.00
25869;BME280;13688;53.154;18.136;2022-10-22T12:31:13;100602.05;;;11.80;100.00
25869;BME280;13688;53.154;18.136;2022-10-22T12:36:34;100592.98;;;11.81;100.00
25869;BME280;13688;53.154;18.136;2022-10-22T12:41:57;100596.53;;;11.81;100.00
25869;BME280;13688;53.154;18.136;2022-10-22T12:47:22;100589.16;;;11.83;100.00
25869;BME280;13688;53.154;18.136;2022-10-22T12:52:44;100580.09;;;11.84;100.00
25869;BME280;13688;53.154;18.136;2022-10-22T12:58:10;100586.33;;;11.85;100.00
25869;BME280;13688;53.154;18.136;2022-10-22T13:03:40;100582.65;;;11.86;100.00
25869;BME280;13688;53.154;18.136;2022-10-22T13:09:12;100588.89;;;11.86;100.00
25869;BME280;13688;53.154;18.136;2022-10-22T13:14:37;100582.65;;;11.86;100.00
25869;BME280;13688;53.154;18.136;2022-10-22T13:20:11;100591.58;;;11.86;100.00
25869;BME280;13688;53.154;18.136;2022-10-22T13:25:55;100581.48;;;11.99;100.00
25869;BME280;13688;53.154;18.136;2022-10-22T13:31:29;100578.86;;;11.88;100.00
25869;BME280;13688;53.154;18.136;2022-10-22T13:36:48;100580.70;;;11.88;100.00
25869;BME280;13688;53.154;18.136;2022-10-22T13:42:17;100577.27;;;11.86;100.00
25869;BME280;13688;53.154;18.136;2022-10-22T13:47:39;100570.89;;;11.87;100.00
25869;BME280;13688;53.154;18.136;2022-10-22T13:53:09;100572.86;;;11.85;100.00
25869;BME280;13688;53.154;18.136;2022-10-22T13:58:37;100562.80;;;11.87;100.00
25869;BME280;13688;53.154;18.136;2022-10-22T14:04:02;100562.70;;;11.88;100.00
25869;BME280;13688;53.154;18.136;2022-10-22T14:09:26;100574.91;;;11.92;100.00
25869;BME280;13688;53.154;18.136;2022-10-22T14:14:48;100574.64;;;11.95;100.00
25869;BME280;13688;53.154;18.136;2022-10-22T14:20:14;100592.78;;;11.93;100.00
25869;BME280;13688;53.154;18.136;2022-10-22T14:25:39;100591.08;;;11.92;100.00
25869;BME280;13688;53.154;18.136;2022-10-22T14:31:02;100600.15;;;11.91;100.00
25869;BME280;13688;53.154;18.136;2022-10-22T14:36:26;100601.98;;;11.91;100.00
25869;BME280;13688;53.154;18.136;2022-10-22T14:41:48;100610.07;;;11.91;100.00
25869;BME280;13688;53.154;18.136;2022-10-22T14:47:11;100612.05;;;11.89;100.00
25869;BME280;13688;53.154;18.136;2022-10-22T14:52:33;100603.97;;;11.89;100.00
25869;BME280;13688;53.154;18.136;2022-10-22T14:57:57;100615.59;;;11.89;100.00
25869;BME280;13688;53.154;18.136;2022-10-22T15:03:19;100615.59;;;11.89;100.00
25869;BME280;13688;53.154;18.136;2022-10-22T15:08:41;100617.44;;;11.89;100.00
25869;BME280;13688;53.154;18.136;2022-10-22T15:14:03;100618.29;;;11.89;100.00
25869;BME280;13688;53.154;18.136;2022-10-22T15:19:26;100614.74;;;11.89;100.00
25869;BME280;13688;53.154;18.136;2022-10-22T15:24:53;100614.61;;;11.90;100.00
25869;BME280;13688;53.154;18.136;2022-10-22T15:30:17;100614.61;;;11.90;100.00
25869;BME280;13688;53.154;18.136;2022-10-22T15:35:39;100621.84;;;11.90;100.00
25869;BME280;13688;53.154;18.136;2022-10-22T15:41:09;100620.84;;;11.91;100.00
25869;BME280;13688;53.154;18.136;2022-10-22T15:46:33;100622.83;;;11.89;100.00
25869;BME280;13688;53.154;18.136;2022-10-22T15:51:56;100627.36;;;11.88;100.00
25869;BME280;13688;53.154;18.136;2022-10-22T15:57:19;100641.69;;;11.89;100.00
25869;BME280;13688;53.154;18.136;2022-10-22T16:02:41;100644.52;;;11.87;100.00
25869;BME280;13688;53.154;18.136;2022-10-22T16:08:04;100656.14;;;11.88;100.00
25869;BME280;13688;53.154;18.136;2022-10-22T16:13:28;100657.00;;;11.88;100.00
25869;BME280;13688;53.154;18.136;2022-10-22T16:18:50;100660.55;;;11.89;100.00
25869;BME280;13688;53.154;18.136;2022-10-22T16:24:13;100676.71;;;11.89;100.00
25869;BME280;13688;53.154;18.136;2022-10-22T16:29:36;100683.94;;;11.88;100.00
25869;BME280;13688;53.154;18.136;2022-10-22T16:34:59;100686.63;;;11.88;100.00
25869;BME280;13688;53.154;18.136;2022-10-22T16:40:22;100695.57;;;11.89;100.00
25869;BME280;13688;53.154;18.136;2022-10-22T16:45:47;100695.57;;;11.89;100.00
25869;BME280;13688;53.154;18.136;2022-10-22T16:51:16;100694.58;;;11.90;100.00
25869;BME280;13688;53.154;18.136;2022-10-22T16:56:39;100694.58;;;11.90;100.00
25869;BME280;13688;53.154;18.136;2022-10-22T17:02:01;100697.28;;;11.90;100.00
25869;BME280;13688;53.154;18.136;2022-10-22T17:07:25;100706.08;;;11.92;100.00
25869;BME280;13688;53.154;18.136;2022-10-22T17:12:48;100705.23;;;11.91;100.00
25869;BME280;13688;53.154;18.136;2022-10-22T17:18:11;100708.77;;;11.92;100.00
25869;BME280;13688;53.154;18.136;2022-10-22T17:23:33;100714.16;;;11.92;100.00
25869;BME280;13688;53.154;18.136;2022-10-22T17:28:56;100720.54;;;11.91;100.00
25869;BME280;13688;53.154;18.136;2022-10-22T17:34:21;100719.55;;;11.92;100.00
25869;BME280;13688;53.154;18.136;2022-10-22T17:39:43;100722.11;;;11.93;100.00
25869;BME280;13688;53.154;18.136;2022-10-22T17:45:06;100728.36;;;11.94;100.00
25869;BME280;13688;53.154;18.136;2022-10-22T17:50:28;100733.75;;;11.94;100.00
25869;BME280;13688;53.154;18.136;2022-10-22T17:56:00;100738.14;;;11.95;100.00
25869;BME280;13688;53.154;18.136;2022-10-22T18:01:25;100738.02;;;11.96;100.00
25869;BME280;13688;53.154;18.136;2022-10-22T18:06:52;100711.87;;;11.87;100.00
25869;BME280;13688;53.154;18.136;2022-10-22T18:12:15;100736.93;;;11.99;100.00
25869;BME280;13688;53.154;18.136;2022-10-22T18:17:37;100737.78;;;11.99;100.00
25869;BME280;13688;53.154;18.136;2022-10-22T18:22:59;100744.02;;;12.00;100.00
25869;BME280;13688;53.154;18.136;2022-10-22T18:28:22;100744.02;;;12.00;100.00
25869;BME280;13688;53.154;18.136;2022-10-22T18:33:45;100740.61;;;11.98;100.00
25869;BME280;13688;53.154;18.136;2022-10-22T18:39:10;100751.48;;;11.96;100.00
25869;BME280;13688;53.154;18.136;2022-10-22T18:44:32;100754.08;;;11.98;100.00
25869;BME280;13688;53.154;18.136;2022-10-22T18:49:57;100749.28;;;12.01;100.00
25869;BME280;13688;53.154;18.136;2022-10-22T18:55:21;100745.73;;;12.01;100.00
25869;BME280;13688;53.154;18.136;2022-10-22T19:00:44;100752.56;;;12.05;100.00
25869;BME280;13688;53.154;18.136;2022-10-22T19:06:07;100757.86;;;12.07;100.00
25869;BME280;13688;53.154;18.136;2022-10-22T19:11:30;100770.21;;;12.09;100.00
25869;BME280;13688;53.154;18.136;2022-10-22T19:16:54;100769.23;;;12.10;100.00
25869;BME280;13688;53.154;18.136;2022-10-22T19:22:17;100764.55;;;12.12;100.00
25869;BME280;13688;53.154;18.136;2022-10-22T19:27:40;100769.67;;;12.15;100.00
25869;BME280;13688;53.154;18.136;2022-10-22T19:33:04;100766.88;;;12.17;100.00
25869;BME280;13688;53.154;18.136;2022-10-22T19:38:26;100781.94;;;12.19;100.00
25869;BME280;13688;53.154;18.136;2022-10-22T19:43:51;100779.96;;;12.21;100.00
25869;BME280;13688;53.154;18.136;2022-10-22T19:49:16;100788.91;;;12.22;100.00
25869;BME280;13688;53.154;18.136;2022-10-22T19:54:39;100796.86;;;12.23;100.00
25869;BME280;13688;53.154;18.136;2022-10-22T20:00:01;100799.42;;;12.25;100.00
25869;BME280;13688;53.154;18.136;2022-10-22T20:05:24;100803.86;;;12.26;100.00
25869;BME280;13688;53.154;18.136;2022-10-22T20:10:47;100809.25;;;12.26;100.00
25869;BME280;13688;53.154;18.136;2022-10-22T20:16:10;100812.66;;;12.28;100.00
25869;BME280;13688;53.154;18.136;2022-10-22T20:21:33;100821.47;;;12.30;100.00
25869;BME280;13688;53.154;18.136;2022-10-22T20:27:06;100830.23;;;12.43;100.00
25869;BME280;13688;53.154;18.136;2022-10-22T20:32:28;100845.24;;;12.36;100.00
25869;BME280;13688;53.154;18.136;2022-10-22T20:37:52;100844.39;;;12.36;100.00
25869;BME280;13688;53.154;18.136;2022-10-22T20:43:15;100852.34;;;12.37;100.00
25869;BME280;13688;53.154;18.136;2022-10-22T20:48:37;100850.50;;;12.38;100.00
25869;BME280;13688;53.154;18.136;2022-10-22T20:53:59;100858.46;;;12.39;100.00
25869;BME280;13688;53.154;18.136;2022-10-22T20:59:22;100858.73;;;12.36;100.00
25869;BME280;13688;53.154;18.136;2022-10-22T21:04:44;100866.69;;;12.38;100.00
25869;BME280;13688;53.154;18.136;2022-10-22T21:10:07;100869.25;;;12.39;100.00
25869;BME280;13688;53.154;18.136;2022-10-22T21:15:29;100880.03;;;12.39;100.00
25869;BME280;13688;53.154;18.136;2022-10-22T21:20:51;100886.28;;;12.40;100.00
25869;BME280;13688;53.154;18.136;2022-10-22T21:26:14;100893.52;;;12.39;100.00
25869;BME280;13688;53.154;18.136;2022-10-22T21:31:36;100893.38;;;12.41;100.00
25869;BME280;13688;53.154;18.136;2022-10-22T21:36:59;100888.98;;;12.40;100.00
25869;BME280;13688;53.154;18.136;2022-10-22T21:42:21;100894.50;;;12.38;100.00
25869;BME280;13688;53.154;18.136;2022-10-22T21:47:44;100895.48;;;12.37;100.00
25869;BME280;13688;53.154;18.136;2022-10-22T21:53:07;100901.11;;;12.34;100.00
25869;BME280;13688;53.154;18.136;2022-10-22T21:58:30;100907.63;;;12.31;100.00
25869;BME280;13688;53.154;18.136;2022-10-22T22:03:54;100899.53;;;12.31;100.00
25869;BME280;13688;53.154;18.136;2022-10-22T22:09:17;100909.09;;;12.24;100.00
25869;BME280;13688;53.154;18.136;2022-10-22T22:14:39;100903.60;;;12.15;100.00
25869;BME280;13688;53.154;18.136;2022-10-22T22:20:01;100910.84;;;12.03;100.00
25869;BME280;13688;53.154;18.136;2022-10-22T22:25:23;100910.98;;;11.90;100.00
25869;BME280;13688;53.154;18.136;2022-10-22T22:30:46;100908.27;;;11.79;100.00
25869;BME280;13688;53.154;18.136;2022-10-22T22:36:08;100910.08;;;11.67;100.00
25869;BME280;13688;53.154;18.136;2022-10-22T22:41:30;100908.95;;;11.47;100.00
25869;BME280;13688;53.154;18.136;2022-10-22T22:46:53;100913.59;;;11.34;100.00
25869;BME280;13688;53.154;18.136;2022-10-22T22:52:15;100923.77;;;11.31;100.00
25869;BME280;13688;53.154;18.136;2022-10-22T22:57:37;100920.67;;;11.24;100.00
25869;BME280;13688;53.154;18.136;2022-10-22T23:03:00;100930.92;;;11.19;100.00
25869;BME280;13688;53.154;18.136;2022-10-22T23:08:22;100927.23;;;11.09;100.00
25869;BME280;13688;53.154;18.136;2022-10-22T23:13:45;100948.72;;;10.98;100.00
25869;BME280;13688;53.154;18.136;2022-10-22T23:19:09;100952.70;;;11.16;100.00
25869;BME280;13688;53.154;18.136;2022-10-22T23:24:34;100949.06;;;11.28;100.00
25869;BME280;13688;53.154;18.136;2022-10-22T23:29:56;100956.19;;;11.29;100.00
25869;BME280;13688;53.154;18.136;2022-10-22T23:35:19;100949.45;;;11.35;100.00
25869;BME280;13688;53.154;18.136;2022-10-22T23:40:41;100951.41;;;11.33;100.00
25869;BME280;13688;53.154;18.136;2022-10-22T23:46:06;100963.89;;;11.34;100.00
25869;BME280;13688;53.154;18.136;2022-10-22T23:51:29;100968.76;;;11.29;100.00
25869;BME280;13688;53.154;18.136;2022-10-22T23:56:52;100965.98;;;11.30;100.00
